Time;durP1;ratioP1;P1;durP2;ratioP2;P2;SDS_P1;SDS_P2;PMS_P1;PMS_P2;Temp;Humidity;BMP_temperature;BMP_pressure;BME280_temperature;BME280_humidity;BME280_pressure;Samples;Min_cycle;Max_cycle;Signal;HPM_P1;HPM_P2
2021/05/04 00:01:32;;;;;;;8.00;7.07;;;;;;;4.54;96.22;100426.38;3563759;40;20061;-52
2021/05/04 00:03:59;;;;;;;9.80;7.50;;;;;;;4.50;96.39;100424.50;3563174;40;20069;-44
2021/05/04 00:06:26;;;;;;;7.78;6.50;;;;;;;4.67;94.47;100419.28;3563563;40;20098;-46
2021/05/04 00:08:52;;;;;;;7.75;6.72;;;;;;;4.66;94.45;100408.28;3563314;40;20120;-48
2021/05/04 00:11:19;;;;;;;7.45;5.82;;;;;;;4.84;93.00;100408.25;3563948;40;20089;-44
2021/05/04 00:13:46;;;;;;;8.55;5.97;;;;;;;4.89;92.11;100404.22;3563753;40;20077;-45
2021/05/04 00:16:29;;;;;;;7.53;5.20;;;;;;;5.11;90.50;100406.91;3563717;40;20057;-44
2021/05/04 00:18:55;;;;;;;7.25;5.95;;;;;;;4.92;90.57;100396.75;3563788;40;20049;-45
2021/05/04 00:21:22;;;;;;;7.72;5.28;;;;;;;5.03;91.20;100395.53;3561278;40;20071;-45
2021/05/04 00:23:49;;;;;;;6.68;5.45;;;;;;;5.15;89.63;100389.28;3564104;40;20081;-48
2021/05/04 00:26:15;;;;;;;9.18;4.85;;;;;;;5.15;87.83;100382.53;3563812;40;20052;-48
2021/05/04 00:28:43;;;;;;;6.40;5.57;;;;;;;5.22;87.99;100382.00;3563713;40;20085;-44
2021/05/04 00:31:09;;;;;;;7.40;5.70;;;;;;;5.31;87.56;100387.44;3564929;40;20068;-46
2021/05/04 00:33:36;;;;;;;6.43;4.93;;;;;;;5.19;86.40;100376.78;3563863;40;20435;-46
2021/05/04 00:36:03;;;;;;;6.60;5.20;;;;;;;5.39;86.16;100377.59;3565112;40;20072;-48
2021/05/04 00:38:30;;;;;;;6.60;5.10;;;;;;;5.40;86.34;100371.72;3565621;40;20076;-49
2021/05/04 00:40:56;;;;;;;6.78;5.47;;;;;;;5.52;84.62;100364.59;3565859;40;20323;-44
2021/05/04 00:43:28;;;;;;;5.82;5.22;;;;;;;5.42;85.44;100354.03;3562402;40;20571;-46
2021/05/04 00:45:55;;;;;;;6.32;5.45;;;;;;;5.63;84.01;100353.19;3564219;40;20049;-44
2021/05/04 00:48:21;;;;;;;5.03;4.53;;;;;;;5.48;84.18;100357.66;3563675;40;20335;-49
2021/05/04 00:50:48;;;;;;;7.57;5.38;;;;;;;5.69;83.95;100342.44;3563354;40;20057;-48
2021/05/04 00:53:15;;;;;;;8.77;5.85;;;;;;;5.65;83.46;100348.19;3556594;40;20085;-47
2021/05/04 00:55:43;;;;;;;7.25;6.07;;;;;;;5.51;84.45;100344.25;3566756;40;20089;-50
2021/05/04 00:58:12;;;;;;;7.80;6.53;;;;;;;5.53;84.20;100340.94;3567207;40;20386;-45
2021/05/04 01:00:39;;;;;;;8.73;6.63;;;;;;;5.54;84.28;100334.19;3564470;40;20094;-44
2021/05/04 01:03:07;;;;;;;7.53;5.70;;;;;;;5.71;83.61;100334.88;3563829;40;20054;-47
2021/05/04 01:05:34;;;;;;;8.88;6.03;;;;;;;5.75;83.09;100327.41;3563325;40;20351;-44
2021/05/04 01:08:00;;;;;;;7.18;6.35;;;;;;;5.63;83.40;100325.25;3562925;40;20065;-46
2021/05/04 01:10:27;;;;;;;9.55;6.13;;;;;;;5.67;82.75;100321.16;3563028;40;20346;-43
2021/05/04 01:12:54;;;;;;;8.35;5.93;;;;;;;5.74;83.00;100317.22;3563596;40;20069;-47
2021/05/04 01:15:20;;;;;;;9.70;6.40;;;;;;;5.61;83.70;100310.78;3563430;40;20506;-47
2021/05/04 01:17:47;;;;;;;8.10;6.50;;;;;;;5.68;82.20;100311.88;3562644;40;20077;-46
2021/05/04 01:20:14;;;;;;;6.43;5.35;;;;;;;5.71;83.04;100300.16;3563237;40;20098;-46
2021/05/04 01:22:40;;;;;;;7.88;6.00;;;;;;;5.67;82.66;100303.38;3563448;40;20269;-46
2021/05/04 01:25:08;;;;;;;7.97;5.93;;;;;;;5.68;82.48;100296.63;3563746;40;20089;-46
2021/05/04 01:27:35;;;;;;;6.82;6.10;;;;;;;5.83;82.26;100298.09;3563094;40;20046;-46
2021/05/04 01:30:02;;;;;;;9.68;6.80;;;;;;;5.65;82.79;100289.78;3563040;40;20124;-47
2021/05/04 01:32:29;;;;;;;8.70;6.55;;;;;;;5.60;83.07;100287.06;3562988;40;20116;-47
2021/05/04 01:34:57;;;;;;;9.88;7.68;;;;;;;5.62;83.91;100276.94;3563655;40;20139;-46
2021/05/04 01:37:24;;;;;;;13.32;8.35;;;;;;;5.55;86.37;100268.22;3560670;40;20423;-46
2021/05/04 01:39:52;;;;;;;13.02;8.40;;;;;;;5.83;83.90;100262.53;3563033;40;20077;-48
2021/05/04 01:42:21;;;;;;;10.75;6.85;;;;;;;5.76;84.03;100252.06;3563313;40;20200;-45
2021/05/04 01:44:49;;;;;;;11.05;6.80;;;;;;;5.71;82.82;100256.13;3563729;40;20082;-46
2021/05/04 01:47:16;;;;;;;8.07;5.70;;;;;;;5.93;82.31;100248.53;3564437;40;20395;-46
2021/05/04 01:49:45;;;;;;;7.13;6.22;;;;;;;5.74;83.19;100246.09;3564486;40;20065;-46
2021/05/04 01:52:12;;;;;;;10.02;5.90;;;;;;;5.96;81.46;100242.69;3564565;40;20066;-46
2021/05/04 01:54:39;;;;;;;9.93;6.72;;;;;;;5.85;82.55;100240.56;3564704;40;20077;-49
2021/05/04 01:57:07;;;;;;;6.32;5.60;;;;;;;5.99;81.21;100230.97;3564703;40;20496;-46
2021/05/04 01:59:34;;;;;;;6.55;5.85;;;;;;;5.80;82.38;100223.44;3564217;40;20127;-46
2021/05/04 02:02:01;;;;;;;7.03;5.32;;;;;;;5.94;81.20;100213.81;3564262;40;20085;-46
2021/05/04 02:04:31;;;;;;;11.15;5.88;;;;;;;6.02;81.11;100208.22;3564749;40;20050;-47
2021/05/04 02:07:03;;;;;;;9.48;5.95;;;;;;;5.87;80.86;100205.09;3564148;40;20061;-46
2021/05/04 02:09:31;;;;;;;9.05;5.88;;;;;;;5.99;80.38;100189.44;3564594;40;20368;-45
2021/05/04 02:11:58;;;;;;;6.43;5.05;;;;;;;5.98;80.02;100190.25;3564054;40;20358;-47
2021/05/04 02:14:25;;;;;;;8.38;5.82;;;;;;;5.52;82.59;100191.91;3564636;40;20496;-46
2021/05/04 02:16:52;;;;;;;6.93;5.18;;;;;;;5.77;80.92;100178.44;3564466;40;20422;-47
2021/05/04 02:19:18;;;;;;;6.93;4.93;;;;;;;5.85;80.76;100173.66;3564429;40;20077;-46
2021/05/04 02:21:45;;;;;;;5.80;5.18;;;;;;;5.84;80.27;100171.94;3563775;40;20124;-46
2021/05/04 02:24:12;;;;;;;5.95;5.35;;;;;;;5.54;81.88;100169.13;3564412;40;20073;-46
2021/05/04 02:26:38;;;;;;;6.25;5.22;;;;;;;5.93;79.94;100159.59;3564755;40;20057;-48
2021/05/04 02:29:05;;;;;;;5.75;5.00;;;;;;;5.92;79.40;100150.25;3564884;40;20344;-47
2021/05/04 02:31:31;;;;;;;8.25;6.53;;;;;;;5.84;81.02;100149.06;3564385;40;20061;-46
2021/05/04 02:33:58;;;;;;;10.05;6.80;;;;;;;5.98;79.16;100152.13;3564126;40;20431;-48
2021/05/04 02:36:25;;;;;;;9.45;6.45;;;;;;;5.70;81.06;100130.78;3566869;40;20068;-46
2021/05/04 02:38:51;;;;;;;12.88;7.07;;;;;;;6.02;79.59;100131.09;3564490;40;20065;-46
2021/05/04 02:41:18;;;;;;;7.50;6.45;;;;;;;5.82;80.84;100130.34;3555036;40;20105;-46
2021/05/04 02:43:44;;;;;;;8.27;6.40;;;;;;;5.89;80.56;100124.69;3564650;40;20113;-46
2021/05/04 02:46:11;;;;;;;8.13;6.82;;;;;;;6.10;78.83;100120.41;3564567;40;20057;-47
2021/05/04 02:48:39;;;;;;;9.30;6.93;;;;;;;6.03;79.50;100108.28;3565094;40;20092;-48
2021/05/04 02:51:07;;;;;;;11.10;6.60;;;;;;;6.22;78.57;100107.22;3555203;40;20049;-46
2021/05/04 02:53:34;;;;;;;8.63;6.07;;;;;;;5.97;81.15;100097.03;3564267;40;20049;-47
2021/05/04 02:56:02;;;;;;;8.73;6.38;;;;;;;5.77;81.43;100096.28;3563833;40;20327;-45
2021/05/04 02:58:29;;;;;;;7.88;6.05;;;;;;;5.95;81.40;100083.41;3564266;40;20077;-47
2021/05/04 03:00:56;;;;;;;7.53;5.90;;;;;;;6.19;77.95;100084.22;3563980;40;20064;-47
2021/05/04 03:03:23;;;;;;;6.85;5.75;;;;;;;6.27;77.40;100081.94;3561613;40;20527;-46
2021/05/04 03:05:51;;;;;;;6.80;5.10;;;;;;;6.29;77.54;100068.47;3564878;40;20053;-50
2021/05/04 03:08:18;;;;;;;8.07;5.90;;;;;;;6.14;77.89;100057.78;3564855;40;20085;-47
2021/05/04 03:10:44;;;;;;;6.75;5.55;;;;;;;6.01;78.46;100059.09;3564450;40;20082;-48
2021/05/04 03:13:11;;;;;;;8.00;5.47;;;;;;;6.16;77.51;100052.78;3564305;40;20077;-47
2021/05/04 03:15:38;;;;;;;5.55;4.97;;;;;;;5.95;77.23;100040.22;3554971;40;20101;-49
2021/05/04 03:18:05;;;;;;;6.97;5.13;;;;;;;6.24;75.66;100036.06;3564196;40;20069;-47
2021/05/04 03:20:31;;;;;;;8.27;5.28;;;;;;;6.11;76.42;100032.28;3564326;40;20121;-47
2021/05/04 03:23:00;;;;;;;7.00;5.20;;;;;;;6.18;76.16;100020.63;3554715;40;20094;-46
2021/05/04 03:25:27;;;;;;;7.55;5.32;;;;;;;6.21;76.20;100018.19;3564560;40;20379;-49
2021/05/04 03:27:57;;;;;;;5.90;5.30;;;;;;;6.18;76.20;100011.31;3564419;40;20073;-47
2021/05/04 03:30:26;;;;;;;5.75;5.10;;;;;;;6.38;76.05;100011.97;3562151;40;20053;-48
2021/05/04 03:32:53;;;;;;;6.40;5.43;;;;;;;6.33;75.85;100004.22;3564585;40;20830;-46
2021/05/04 03:35:20;;;;;;;8.40;5.25;;;;;;;6.30;76.03;99995.63;3564321;40;20076;-47
2021/05/04 03:37:47;;;;;;;8.35;5.70;;;;;;;6.34;75.69;99992.34;3563947;40;20045;-49
2021/05/04 03:40:15;;;;;;;6.22;5.18;;;;;;;6.22;75.69;99986.88;3563977;40;20089;-46
2021/05/04 03:42:42;;;;;;;8.02;6.10;;;;;;;6.34;75.19;99977.09;3563898;40;20098;-46
2021/05/04 03:45:12;;;;;;;6.55;5.20;;;;;;;6.37;75.33;99970.41;3565453;40;20065;-46
2021/05/04 03:47:41;;;;;;;6.22;5.38;;;;;;;6.36;75.46;99967.81;3563943;40;20077;-47
2021/05/04 03:50:11;;;;;;;8.85;6.15;;;;;;;6.34;75.33;99967.78;3564359;40;20125;-47
2021/05/04 03:52:38;;;;;;;6.97;4.95;;;;;;;6.19;75.45;99954.59;3563964;40;20064;-48
2021/05/04 03:55:05;;;;;;;6.05;5.13;;;;;;;6.34;75.48;99959.31;3563820;40;20068;-46
2021/05/04 03:57:32;;;;;;;7.35;5.13;;;;;;;6.24;75.93;99950.53;3563790;40;20045;-48
2021/05/04 03:59:59;;;;;;;6.38;5.30;;;;;;;6.18;76.68;99944.38;3565476;40;20419;-48
2021/05/04 04:02:25;;;;;;;6.95;4.57;;;;;;;6.36;75.41;99940.72;3563480;40;20061;-47
2021/05/04 04:04:52;;;;;;;6.38;4.68;;;;;;;6.44;73.91;99940.09;3565330;40;20045;-47
2021/05/04 04:07:19;;;;;;;6.88;5.03;;;;;;;6.37;74.76;99932.25;3566189;40;20081;-46
2021/05/04 04:09:46;;;;;;;8.88;5.50;;;;;;;6.46;74.14;99929.13;3563255;40;20042;-47
2021/05/04 04:12:12;;;;;;;6.28;5.25;;;;;;;6.48;73.96;99932.59;3563763;40;20094;-47
2021/05/04 04:14:39;;;;;;;5.68;4.68;;;;;;;6.49;72.79;99925.84;3563782;40;20045;-48
2021/05/04 04:17:05;;;;;;;7.45;5.45;;;;;;;6.62;73.23;99912.66;3563132;40;20057;-47
2021/05/04 04:19:32;;;;;;;6.90;5.50;;;;;;;6.65;72.91;99917.81;3563309;40;20103;-51
2021/05/04 04:21:58;;;;;;;5.55;4.80;;;;;;;6.60;72.83;99904.09;3562842;40;20049;-48
2021/05/04 04:24:25;;;;;;;9.80;5.50;;;;;;;6.64;73.34;99899.16;3563704;40;20108;-46
2021/05/04 04:26:51;;;;;;;6.32;4.82;;;;;;;6.66;72.56;99898.38;3563783;40;20054;-46
2021/05/04 04:29:18;;;;;;;6.82;5.03;;;;;;;6.63;72.93;99896.56;3563516;40;20057;-48
2021/05/04 04:31:44;;;;;;;5.05;4.55;;;;;;;6.84;72.10;99887.00;3563397;40;20065;-52
2021/05/04 04:34:11;;;;;;;5.82;4.65;;;;;;;6.94;71.19;99883.03;3563481;40;20061;-46
2021/05/04 04:36:38;;;;;;;4.97;4.15;;;;;;;7.13;70.30;99876.75;3563742;40;20093;-49
2021/05/04 04:39:04;;;;;;;5.45;4.68;;;;;;;7.24;69.61;99874.47;3563249;40;20288;-46
2021/05/04 04:41:37;;;;;;;5.97;4.78;;;;;;;7.23;68.76;99876.16;3562981;40;20053;-48
2021/05/04 04:44:04;;;;;;;6.43;4.80;;;;;;;7.25;70.91;99868.56;3567931;40;20101;-49
2021/05/04 04:46:39;;;;;;;6.18;4.65;;;;;;;7.29;69.14;99857.63;3563684;40;20095;-47
2021/05/04 04:49:12;;;;;;;5.18;4.68;;;;;;;7.40;68.73;99856.22;3563758;40;20061;-48
2021/05/04 04:51:40;;;;;;;6.78;4.70;;;;;;;7.47;68.68;99859.78;3565918;40;20049;-48
2021/05/04 04:54:08;;;;;;;6.18;4.30;;;;;;;7.47;68.88;99849.59;3563550;40;20360;-45
2021/05/04 04:56:35;;;;;;;7.70;4.82;;;;;;;7.48;68.27;99846.22;3563316;40;20060;-46
2021/05/04 04:59:03;;;;;;;8.77;4.70;;;;;;;7.68;67.96;99839.94;3562904;40;20161;-46
2021/05/04 05:01:30;;;;;;;6.97;4.50;;;;;;;7.68;67.74;99834.81;3562975;40;20097;-50
2021/05/04 05:03:57;;;;;;;7.88;5.32;;;;;;;7.73;66.63;99829.84;3563183;40;20088;-48
2021/05/04 05:06:24;;;;;;;8.43;4.60;;;;;;;7.72;67.06;99823.00;3560947;40;20143;-47
2021/05/04 05:08:51;;;;;;;7.97;4.78;;;;;;;7.82;66.58;99814.75;3562865;40;20593;-45
2021/05/04 05:11:19;;;;;;;12.65;4.35;;;;;;;7.88;65.50;99818.28;3565253;40;20306;-50
2021/05/04 05:13:46;;;;;;;7.25;4.60;;;;;;;7.96;65.69;99825.25;3570094;40;20057;-50
2021/05/04 05:16:14;;;;;;;6.80;4.68;;;;;;;7.89;65.10;99811.50;3570102;40;20061;-49
2021/05/04 05:18:41;;;;;;;7.15;4.97;;;;;;;7.87;65.72;99801.28;3565259;40;20064;-48
2021/05/04 05:21:10;;;;;;;7.38;4.75;;;;;;;7.89;65.85;99801.31;3567785;40;20053;-45
2021/05/04 05:23:38;;;;;;;6.55;4.72;;;;;;;7.99;65.49;99790.47;3563349;40;20490;-46
2021/05/04 05:26:05;;;;;;;7.90;4.38;;;;;;;8.03;65.08;99778.66;3563290;40;20800;-48
2021/05/04 05:28:32;;;;;;;6.82;5.07;;;;;;;8.26;65.04;99777.44;3563140;40;20081;-47
2021/05/04 05:30:58;;;;;;;6.95;4.35;;;;;;;8.13;65.04;99770.38;3562384;40;20089;-46
2021/05/04 05:33:25;;;;;;;7.28;4.82;;;;;;;8.21;65.18;99761.19;3562020;40;20300;-48
2021/05/04 05:35:52;;;;;;;7.38;4.82;;;;;;;8.28;63.68;99757.94;3565010;40;20049;-51
2021/05/04 05:38:33;;;;;;;6.63;5.13;;;;;;;8.48;64.26;99760.06;3564696;40;20064;-49
2021/05/04 05:41:00;;;;;;;8.05;5.43;;;;;;;8.42;63.85;99742.94;3566427;40;20057;-46
2021/05/04 05:43:30;;;;;;;8.35;5.47;;;;;;;8.43;63.13;99729.34;3567250;40;20091;-46
2021/05/04 05:46:03;;;;;;;11.35;5.72;;;;;;;8.65;63.51;99722.97;3565306;40;20073;-48
2021/05/04 05:48:30;;;;;;;6.40;5.00;;;;;;;8.77;63.01;99722.28;3565167;40;20158;-46
2021/05/04 05:50:56;;;;;;;6.72;4.30;;;;;;;8.76;61.21;99721.44;3562873;40;20092;-45
2021/05/04 05:53:23;;;;;;;8.23;4.85;;;;;;;8.86;61.64;99709.69;3561717;40;20052;-48
2021/05/04 05:55:50;;;;;;;11.23;7.05;;;;;;;8.91;61.80;99708.94;3567936;40;20326;-45
2021/05/04 05:58:16;;;;;;;14.50;8.93;;;;;;;8.88;62.64;99702.94;3563306;40;20115;-49
2021/05/04 06:00:43;;;;;;;8.43;6.32;;;;;;;9.05;61.27;99701.50;3563147;40;20505;-45
2021/05/04 06:03:09;;;;;;;12.13;7.57;;;;;;;9.01;61.22;99686.94;3564353;40;20053;-47
2021/05/04 06:05:35;;;;;;;20.35;11.45;;;;;;;9.04;61.99;99673.38;3566376;40;20034;-46
2021/05/04 06:08:03;;;;;;;12.02;6.80;;;;;;;9.03;60.58;99666.56;3563233;40;20056;-46
2021/05/04 06:10:31;;;;;;;12.15;7.85;;;;;;;9.11;60.98;99662.44;3563980;40;20058;-46
2021/05/04 06:13:07;;;;;;;12.30;7.00;;;;;;;9.21;60.45;99654.06;3563273;40;20097;-45
2021/05/04 06:15:40;;;;;;;7.28;5.55;;;;;;;9.46;60.86;99639.06;3561379;40;20968;-47
2021/05/04 06:18:08;;;;;;;8.27;6.28;;;;;;;9.68;59.25;99636.81;3563750;40;20323;-46
2021/05/04 06:20:36;;;;;;;7.55;4.90;;;;;;;9.78;58.68;99622.44;3563042;40;20053;-46
2021/05/04 06:23:04;;;;;;;12.23;7.25;;;;;;;9.98;58.58;99621.78;3563686;40;20041;-48
2021/05/04 06:25:34;;;;;;;9.07;6.25;;;;;;;10.26;57.39;99620.41;3562116;40;20050;-49
2021/05/04 06:28:07;;;;;;;12.05;5.43;;;;;;;10.41;56.88;99602.66;3562559;40;20352;-48
2021/05/04 06:30:36;;;;;;;9.25;5.10;;;;;;;10.72;56.36;99596.06;3562707;40;20479;-51
2021/05/04 06:33:05;;;;;;;10.20;5.38;;;;;;;10.92;55.76;99588.53;3565206;40;20037;-45
2021/05/04 06:35:35;;;;;;;7.18;5.07;;;;;;;11.18;53.87;99575.84;3565011;40;20434;-47
2021/05/04 06:38:04;;;;;;;6.20;4.00;;;;;;;11.14;53.84;99575.00;3562703;40;20057;-45
2021/05/04 06:40:33;;;;;;;6.97;4.35;;;;;;;11.34;53.94;99579.38;3566365;40;20045;-45
2021/05/04 06:43:02;;;;;;;6.65;4.60;;;;;;;11.52;53.36;99563.22;3566091;40;20124;-50
2021/05/04 06:45:29;;;;;;;5.60;3.53;;;;;;;11.56;52.32;99554.69;3568287;40;20056;-47
2021/05/04 06:47:57;;;;;;;6.35;4.63;;;;;;;11.66;52.44;99544.47;3558223;40;20041;-48
2021/05/04 06:50:25;;;;;;;5.72;4.68;;;;;;;11.97;51.62;99558.25;3562163;40;20069;-50
2021/05/04 06:52:51;;;;;;;5.40;4.68;;;;;;;12.21;51.28;99543.72;3569200;40;20052;-47
2021/05/04 06:55:18;;;;;;;6.93;4.53;;;;;;;12.16;50.96;99527.47;3566200;40;20049;-48
2021/05/04 06:57:45;;;;;;;13.68;4.68;;;;;;;12.24;50.65;99529.16;3564304;40;20068;-45
2021/05/04 07:00:13;;;;;;;9.00;5.55;;;;;;;12.41;52.03;99518.91;3565077;40;20068;-45
2021/05/04 07:02:39;;;;;;;5.25;3.92;;;;;;;12.35;51.21;99518.91;3564190;40;20077;-48
2021/05/04 07:05:08;;;;;;;5.68;4.40;;;;;;;12.54;49.95;99512.06;3566036;40;20060;-45
2021/05/04 07:07:35;;;;;;;7.13;5.05;;;;;;;12.68;50.59;99497.47;3563568;40;20107;-47
2021/05/04 07:10:03;;;;;;;7.43;4.30;;;;;;;12.61;49.91;99493.19;3564078;40;20065;-50
2021/05/04 07:12:30;;;;;;;7.65;4.72;;;;;;;12.88;50.80;99470.88;3568337;40;20118;-50
2021/05/04 07:14:56;;;;;;;6.63;4.65;;;;;;;12.95;50.39;99463.16;3565730;40;20155;-48
2021/05/04 07:17:24;;;;;;;7.05;4.55;;;;;;;12.80;49.20;99464.91;3562755;40;20329;-48
2021/05/04 07:19:52;;;;;;;7.35;4.78;;;;;;;13.14;48.92;99465.63;3566134;40;20124;-48
2021/05/04 07:22:22;;;;;;;11.02;4.45;;;;;;;13.11;49.84;99465.66;3566051;40;20486;-50
2021/05/04 07:24:49;;;;;;;7.65;4.50;;;;;;;13.11;49.22;99465.66;3566185;40;20053;-47
2021/05/04 07:27:15;;;;;;;5.28;3.40;;;;;;;12.88;49.00;99450.31;3564047;40;20181;-47
2021/05/04 07:29:43;;;;;;;7.10;5.07;;;;;;;13.00;50.17;99442.56;3566188;40;20048;-46
2021/05/04 07:32:10;;;;;;;6.85;3.97;;;;;;;12.94;49.15;99448.59;3563256;40;20061;-51
2021/05/04 07:34:37;;;;;;;5.88;4.43;;;;;;;12.93;49.67;99444.28;3566255;40;20120;-47
2021/05/04 07:37:04;;;;;;;7.68;4.13;;;;;;;12.91;50.13;99433.19;3565928;40;20414;-47
2021/05/04 07:39:30;;;;;;;214.85;149.68;;;;;;;13.02;49.26;99427.97;3562965;40;20108;-50
2021/05/04 07:41:57;;;;;;;7.28;4.45;;;;;;;12.74;49.49;99429.81;3563136;40;20061;-47
2021/05/04 07:44:23;;;;;;;5.93;3.75;;;;;;;12.98;49.69;99436.56;3563113;40;20067;-50
2021/05/04 07:46:50;;;;;;;8.27;4.72;;;;;;;12.89;51.04;99440.03;3563908;40;20415;-50
2021/05/04 07:49:23;;;;;;;7.40;4.22;;;;;;;12.91;49.98;99448.59;3566557;40;20501;-48
2021/05/04 07:51:49;;;;;;;6.50;4.97;;;;;;;12.81;51.09;99440.94;3563289;40;20040;-52
2021/05/04 07:54:18;;;;;;;5.68;3.80;;;;;;;12.77;49.61;99450.38;3566196;40;20437;-46
2021/05/04 07:56:45;;;;;;;4.82;3.85;;;;;;;12.72;49.64;99462.38;3563850;40;20077;-48
2021/05/04 07:59:12;;;;;;;5.18;3.60;;;;;;;12.71;51.73;99479.50;3563768;40;20053;-50
2021/05/04 08:01:38;;;;;;;5.50;3.50;;;;;;;12.14;57.51;99516.34;3563610;40;20054;-47
2021/05/04 08:04:05;;;;;;;8.43;4.85;;;;;;;11.03;67.23;99496.38;3563718;40;20038;-48
2021/05/04 08:06:32;;;;;;;4.93;4.07;;;;;;;10.33;73.74;99500.22;3565100;40;20130;-46
2021/05/04 08:08:59;;;;;;;6.30;4.97;;;;;;;10.04;77.19;99496.56;3566169;40;20065;-47
2021/05/04 08:11:29;;;;;;;10.02;5.75;;;;;;;9.87;80.24;99476.81;3568118;40;20093;-49
2021/05/04 08:13:55;;;;;;;6.72;5.07;;;;;;;9.78;80.43;99486.09;3565853;40;20078;-47
2021/05/04 08:16:22;;;;;;;7.70;4.60;;;;;;;9.67;80.70;99483.44;3565732;40;20061;-49
2021/05/04 08:18:52;;;;;;;7.43;5.28;;;;;;;9.58;79.92;99470.56;3565704;40;20049;-49
2021/05/04 08:21:21;;;;;;;7.63;5.20;;;;;;;9.57;80.83;99482.50;3564750;40;20064;-47
2021/05/04 08:23:48;;;;;;;6.65;5.82;;;;;;;9.66;84.82;99469.81;3564308;40;20049;-46
2021/05/04 08:26:15;;;;;;;9.52;6.10;;;;;;;9.65;85.85;99465.50;3569123;40;20066;-49
2021/05/04 08:28:41;;;;;;;7.97;6.22;;;;;;;9.70;83.44;99458.75;3569158;40;20061;-47
2021/05/04 08:31:08;;;;;;;6.78;5.10;;;;;;;9.64;83.15;99453.59;3564986;40;20081;-49
2021/05/04 08:33:34;;;;;;;7.38;5.05;;;;;;;9.65;81.90;99445.06;3566159;40;20041;-47
2021/05/04 08:36:01;;;;;;;7.55;4.70;;;;;;;9.69;80.21;99430.63;3553604;40;20296;-47
2021/05/04 08:38:28;;;;;;;5.38;4.75;;;;;;;9.80;80.87;99415.38;3567221;40;20100;-46
2021/05/04 08:40:54;;;;;;;7.10;5.05;;;;;;;9.97;80.95;99410.41;3563064;40;20095;-45
2021/05/04 08:43:22;;;;;;;7.25;5.35;;;;;;;9.91;81.68;99406.09;3565388;40;20056;-49
2021/05/04 08:45:58;;;;;;;6.00;4.80;;;;;;;10.02;79.71;99406.16;3563049;40;20057;-47
2021/05/04 08:48:26;;;;;;;5.95;5.35;;;;;;;10.03;78.08;99395.09;3563871;40;20049;-48
2021/05/04 08:50:55;;;;;;;5.30;4.80;;;;;;;10.16;79.67;99389.22;3565786;40;20069;-49
2021/05/04 08:53:42;;;;;;;6.75;4.70;;;;;;;10.29;76.32;99383.34;3562329;40;20065;-48
2021/05/04 08:56:12;;;;;;;8.50;4.72;;;;;;;10.36;76.21;99381.72;3565519;40;20314;-49
2021/05/04 08:58:42;;;;;;;6.13;5.00;;;;;;;10.53;74.75;99379.22;3564310;40;20053;-46
2021/05/04 09:01:13;;;;;;;5.70;3.83;;;;;;;10.64;73.84;99378.44;3564692;40;20049;-49
2021/05/04 09:03:52;;;;;;;4.25;3.85;;;;;;;10.47;71.66;99374.06;3565425;40;20052;-47
2021/05/04 09:06:32;;;;;;;5.35;4.30;;;;;;;10.62;72.51;99376.69;3564168;40;20213;-49
2021/05/04 09:09:54;;;;;;;6.15;4.20;;;;;;;10.90;71.10;99372.53;3562509;40;20046;-47
2021/05/04 09:12:12;;;;;;;4.70;4.25;;;;;;;10.82;71.42;99374.25;3558227;40;20363;-47
2021/05/04 09:22:07;;;;;;;5.53;3.90;;;;;;;11.44;69.44;99360.69;3565401;40;20053;-47
2021/05/04 09:24:40;;;;;;;3.10;2.65;;;;;;;11.81;65.83;99363.25;3562604;40;20057;-52
2021/05/04 09:27:15;;;;;;;4.43;3.67;;;;;;;11.96;66.03;99345.31;3564965;40;20061;-46
2021/05/04 09:29:51;;;;;;;4.95;3.13;;;;;;;12.40;64.34;99345.19;3564182;40;20069;-49
2021/05/04 09:32:21;;;;;;;4.40;3.35;;;;;;;12.39;63.11;99342.66;3562694;40;20045;-48
2021/05/04 09:35:02;;;;;;;6.07;3.00;;;;;;;12.53;62.69;99329.75;3563285;40;20049;-50
2021/05/04 09:37:33;;;;;;;3.97;2.70;;;;;;;12.52;62.62;99323.75;3567589;40;20056;-49
2021/05/04 09:40:23;;;;;;;2.70;2.50;;;;;;;12.36;62.40;99328.09;3564122;40;20052;-47
2021/05/04 09:43:18;;;;;;;2.90;2.70;;;;;;;12.50;60.70;99317.78;3563465;40;20498;-47
2021/05/04 09:45:50;;;;;;;5.75;2.00;;;;;;;12.74;58.95;99309.09;3561730;40;20429;-48
2021/05/04 09:48:22;;;;;;;5.53;2.28;;;;;;;13.49;58.17;99301.72;3565903;40;20053;-45
2021/05/04 09:51:04;;;;;;;3.30;2.00;;;;;;;13.81;56.04;99299.75;3564491;40;20068;-47
2021/05/04 09:53:47;;;;;;;2.25;1.92;;;;;;;15.01;55.60;99302.59;3562779;40;20063;-48
2021/05/04 09:56:15;;;;;;;3.83;2.03;;;;;;;15.50;51.63;99301.84;3564769;40;20065;-47
2021/05/04 09:58:48;;;;;;;1.92;1.80;;;;;;;16.30;48.71;99309.00;3564460;40;20131;-49
2021/05/04 10:01:18;;;;;;;3.42;1.92;;;;;;;16.98;46.51;99293.78;3567281;40;20045;-48
2021/05/04 10:03:46;;;;;;;2.53;1.70;;;;;;;15.97;47.55;99292.41;3566739;40;20461;-50
2021/05/04 10:06:15;;;;;;;3.97;1.80;;;;;;;17.05;46.30;99297.06;3565038;40;20041;-47
2021/05/04 10:08:43;;;;;;;2.60;1.48;;;;;;;16.75;46.06;99296.88;3567260;40;20053;-48
2021/05/04 10:11:12;;;;;;;3.17;1.98;;;;;;;16.92;45.38;99281.00;3565704;40;20442;-46
2021/05/04 10:13:41;;;;;;;3.65;1.73;;;;;;;17.05;45.15;99284.13;3566350;40;20413;-48
2021/05/04 10:16:09;;;;;;;3.08;1.90;;;;;;;16.65;43.79;99282.44;3566407;40;20171;-48
2021/05/04 10:18:36;;;;;;;5.10;1.90;;;;;;;16.15;44.69;99289.50;3565122;40;20379;-48
2021/05/04 10:21:06;;;;;;;3.25;1.75;;;;;;;15.61;45.36;99287.00;3568322;40;20061;-48
2021/05/04 10:23:35;;;;;;;5.25;2.03;;;;;;;15.05;47.30;99285.34;3564178;40;20115;-47
2021/05/04 10:26:14;;;;;;;3.72;2.67;;;;;;;15.12;46.68;99281.81;3566344;40;20071;-50
2021/05/04 10:28:42;;;;;;;3.55;2.30;;;;;;;14.91;48.50;99282.97;3564842;40;20147;-48
2021/05/04 10:31:12;;;;;;;3.78;2.15;;;;;;;15.34;47.30;99278.00;3564927;40;20531;-50
2021/05/04 10:33:40;;;;;;;4.22;2.40;;;;;;;15.64;46.80;99270.66;3567094;40;20081;-50
2021/05/04 10:36:34;;;;;;;4.10;2.42;;;;;;;15.52;46.60;99266.53;3565987;40;20049;-47
2021/05/04 10:39:03;;;;;;;2.85;2.20;;;;;;;15.43;47.32;99266.69;3565634;40;20049;-49
2021/05/04 10:41:50;;;;;;;3.03;2.05;;;;;;;16.33;46.89;99269.34;3564398;40;20072;-50
2021/05/04 10:44:16;;;;;;;;;;;;;;;16.98;43.80;99273.09;3568777;40;20045;-49
2021/05/04 10:46:43;;;;;;;4.85;2.20;;;;;;;16.87;42.58;99264.75;3565849;40;20473;-48
2021/05/04 10:49:18;;;;;;;2.45;1.98;;;;;;;16.96;44.20;99271.41;3564700;40;20355;-48
2021/05/04 10:51:50;;;;;;;4.30;2.13;;;;;;;16.85;43.80;99269.09;3564958;40;20329;-50
2021/05/04 10:54:21;;;;;;;2.78;1.60;;;;;;;16.13;43.96;99264.56;3566661;40;20407;-46
2021/05/04 10:56:58;;;;;;;5.55;1.70;;;;;;;15.52;45.51;99269.94;3564347;40;20052;-48
2021/05/04 10:59:27;;;;;;;6.20;1.60;;;;;;;15.82;44.86;99266.91;3565230;40;20092;-52
2021/05/04 11:02:09;;;;;;;6.93;1.95;;;;;;;15.06;45.67;99277.59;3564208;40;20061;-48
2021/05/04 11:04:51;;;;;;;3.88;1.50;;;;;;;14.99;46.39;99257.94;3565044;40;20697;-49
2021/05/04 11:07:56;;;;;;;5.50;1.60;;;;;;;14.95;46.83;99261.44;3568210;40;20067;-47
2021/05/04 11:10:26;;;;;;;8.10;1.35;;;;;;;14.89;46.74;99264.13;3565319;40;20533;-48
2021/05/04 11:12:53;;;;;;;3.70;1.48;;;;;;;14.98;46.69;99264.84;3564690;40;20053;-50
2021/05/04 11:15:25;;;;;;;2.92;1.85;;;;;;;15.12;47.27;99261.19;3565122;40;20077;-50
2021/05/04 11:17:52;;;;;;;6.57;1.45;;;;;;;15.20;46.52;99267.06;3562941;40;20056;-47
2021/05/04 11:20:28;;;;;;;6.20;1.75;;;;;;;15.07;47.35;99252.66;3566952;40;20069;-47
2021/05/04 11:22:55;;;;;;;4.20;1.60;;;;;;;15.41;45.84;99255.56;3563887;40;20088;-48
2021/05/04 11:25:42;;;;;;;4.28;1.85;;;;;;;15.44;46.54;99253.78;3564337;40;20083;-48
2021/05/04 11:28:10;;;;;;;8.55;1.40;;;;;;;15.59;45.69;99255.22;3565389;40;20156;-47
2021/05/04 11:30:41;;;;;;;4.22;1.40;;;;;;;15.94;46.21;99269.25;3564850;40;20062;-48
2021/05/04 11:33:28;;;;;;;6.75;1.70;;;;;;;15.44;46.28;99258.09;3565270;40;20096;-49
2021/05/04 11:35:56;;;;;;;2.90;1.40;;;;;;;15.23;46.62;99269.59;3567789;40;20045;-49
2021/05/04 11:38:25;;;;;;;4.28;1.58;;;;;;;15.09;48.61;99266.38;3571473;40;20053;-53
2021/05/04 11:40:52;;;;;;;3.35;1.42;;;;;;;14.67;47.57;99267.00;3566282;40;20049;-50
2021/05/04 11:43:21;;;;;;;7.90;1.75;;;;;;;14.41;47.70;99253.56;3566447;40;20069;-49
2021/05/04 11:45:49;;;;;;;5.03;1.60;;;;;;;14.35;47.42;99248.53;3564451;40;20065;-48
2021/05/04 11:48:18;;;;;;;4.90;1.40;;;;;;;14.45;48.66;99257.81;3564941;40;20041;-49
2021/05/04 11:50:51;;;;;;;4.05;1.23;;;;;;;14.37;48.36;99255.34;3564815;40;20073;-49